Time;durP1;ratioP1;P1;durP2;ratioP2;P2;SDS_P1;SDS_P2;PMS_P1;PMS_P2;Temp;Humidity;BMP_temperature;BMP_pressure;BME280_temperature;BME280_humidity;BME280_pressure;Samples;Min_cycle;Max_cycle;Signal;HPM_P1;HPM_P2
2022/03/13 00:01:21;;;;;;;5.72;4.20;;;;;;;17.10;51.63;96482.38;10453308;28;20098;-22
2022/03/13 00:06:32;;;;;;;6.60;4.15;;;;;;;17.12;51.36;96490.78;10453170;28;20067;-23
2022/03/13 00:11:34;;;;;;;4.35;3.45;;;;;;;17.09;48.49;96490.81;10460844;28;20464;-23
2022/03/13 00:16:34;;;;;;;4.53;3.15;;;;;;;17.06;47.98;96495.88;10453395;28;20057;-24
2022/03/13 00:21:35;;;;;;;4.90;3.15;;;;;;;17.03;47.13;96496.69;10450071;28;20300;-23
2022/03/13 00:26:35;;;;;;;7.05;3.50;;;;;;;17.04;47.36;96503.44;10463937;28;20040;-24
2022/03/13 00:31:36;;;;;;;5.30;4.07;;;;;;;17.03;47.08;96500.91;10448829;28;20040;-24
2022/03/13 00:36:37;;;;;;;3.85;3.20;;;;;;;17.00;47.57;96495.84;10459336;28;20094;-25
2022/03/13 00:41:40;;;;;;;4.93;3.13;;;;;;;16.99;47.44;96499.22;10460005;28;20488;-23
2022/03/13 00:46:41;;;;;;;3.97;3.25;;;;;;;17.00;47.10;96499.19;10468254;28;20448;-25
2022/03/13 00:51:41;;;;;;;6.47;4.00;;;;;;;16.92;47.64;96487.41;10465722;28;20083;-25
2022/03/13 00:56:42;;;;;;;4.73;3.10;;;;;;;16.98;47.28;96500.88;10472606;28;20311;-24
2022/03/13 01:01:43;;;;;;;4.70;3.08;;;;;;;16.99;47.33;96504.28;10477943;28;20306;-23
2022/03/13 01:06:44;;;;;;;5.22;3.55;;;;;;;17.08;51.46;96499.22;10474098;28;20447;-23
2022/03/13 01:11:44;;;;;;;6.07;3.40;;;;;;;17.05;51.27;96489.09;10478768;28;20032;-25
2022/03/13 01:16:45;;;;;;;5.25;3.17;;;;;;;17.05;48.67;96494.16;10468595;28;20037;-24
2022/03/13 01:21:45;;;;;;;4.85;3.63;;;;;;;17.03;47.46;96496.69;10466063;28;20496;-24
2022/03/13 01:26:53;;;;;;;3.97;3.40;;;;;;;17.00;47.66;96495.84;10473147;28;20073;-23
2022/03/13 01:31:54;;;;;;;3.85;3.30;;;;;;;16.98;47.52;96492.47;10460214;28;20025;-23
2022/03/13 01:36:56;;;;;;;3.20;2.90;;;;;;;16.97;47.61;96490.75;10461380;28;20036;-23
2022/03/13 01:41:56;;;;;;;3.92;3.22;;;;;;;16.96;47.69;96494.13;10476167;28;20408;-24
2022/03/13 01:46:57;;;;;;;5.33;3.03;;;;;;;16.94;47.76;96483.19;10467584;28;20093;-24
2022/03/13 01:51:57;;;;;;;4.20;3.13;;;;;;;16.92;47.94;96482.34;10457918;28;20291;-25
2022/03/13 01:57:00;;;;;;;3.85;2.70;;;;;;;16.93;47.56;96481.50;10468876;28;20220;-24
2022/03/13 02:02:00;;;;;;;4.13;3.33;;;;;;;16.94;47.64;96478.13;10462420;28;20043;-22
2022/03/13 02:07:01;;;;;;;3.55;3.15;;;;;;;16.93;47.53;96478.97;10459405;28;20412;-23
2022/03/13 02:12:03;;;;;;;4.78;3.38;;;;;;;17.04;51.66;96464.66;10464785;28;20048;-23
2022/03/13 02:17:03;;;;;;;6.82;3.67;;;;;;;17.06;51.93;96465.50;10463733;28;20065;-24
2022/03/13 02:22:04;;;;;;;5.13;3.17;;;;;;;17.02;50.29;96459.59;10463635;28;20091;-23
2022/03/13 02:27:06;;;;;;;3.00;2.65;;;;;;;16.98;48.28;96450.31;10460092;28;20025;-25
2022/03/13 02:32:07;;;;;;;4.85;2.65;;;;;;;16.98;47.98;96444.44;10462482;28;20063;-22
2022/03/13 02:37:19;;;;;;;3.10;2.80;;;;;;;16.93;47.64;96453.69;10458592;28;20269;-24
2022/03/13 02:42:20;;;;;;;3.88;2.92;;;;;;;16.91;47.75;96453.66;10463688;28;20037;-24
2022/03/13 02:47:20;;;;;;;3.33;3.03;;;;;;;16.93;48.09;96452.00;10468872;28;20556;-24
2022/03/13 02:52:21;;;;;;;3.63;2.97;;;;;;;16.93;47.99;96458.72;10458874;28;20059;-24
2022/03/13 02:57:21;;;;;;;2.95;2.65;;;;;;;16.91;47.61;96462.94;10470432;28;20479;-24
2022/03/13 03:02:21;;;;;;;4.37;2.90;;;;;;;16.93;47.97;96459.59;10459710;28;20044;-24
2022/03/13 03:07:22;;;;;;;3.93;3.10;;;;;;;16.93;48.04;96458.72;10468114;28;20040;-24
2022/03/13 03:12:22;;;;;;;3.90;3.07;;;;;;;16.91;47.42;96461.25;10467101;28;20039;-23
2022/03/13 03:17:23;;;;;;;6.13;3.55;;;;;;;17.02;52.18;96463.81;10454815;28;20801;-24
2022/03/13 03:22:23;;;;;;;5.18;3.35;;;;;;;17.04;52.47;96457.91;10457552;28;20040;-24
2022/03/13 03:27:24;;;;;;;3.38;2.85;;;;;;;17.02;51.38;96458.75;10469391;28;20044;-23
2022/03/13 03:32:24;;;;;;;3.20;2.53;;;;;;;16.99;47.88;96468.88;10468143;28;20089;-24
2022/03/13 03:37:25;;;;;;;4.40;3.23;;;;;;;16.96;48.19;96464.66;10460679;28;20299;-22
2022/03/13 03:42:26;;;;;;;3.40;3.08;;;;;;;16.95;48.14;96462.09;10468721;28;20279;-25
2022/03/13 03:47:26;;;;;;;5.03;3.00;;;;;;;16.94;48.27;96462.94;10465042;28;20029;-25
2022/03/13 03:52:27;;;;;;;4.03;2.90;;;;;;;16.91;48.07;96455.38;10456190;28;20302;-23
2022/03/13 03:57:27;;;;;;;3.88;2.83;;;;;;;16.91;47.62;96460.44;10469822;28;20033;-23
2022/03/13 04:02:27;;;;;;;3.70;2.80;;;;;;;16.92;47.24;96457.06;10465011;28;20094;-24
2022/03/13 04:07:28;;;;;;;2.50;2.30;;;;;;;16.91;48.45;96462.94;10467553;28;20484;-24
2022/03/13 04:12:30;;;;;;;4.07;2.63;;;;;;;16.92;47.35;96462.09;10466779;28;20036;-22
2022/03/13 04:17:31;;;;;;;3.25;2.55;;;;;;;16.92;48.02;96467.16;10431247;28;20312;-24
2022/03/13 04:22:31;;;;;;;6.78;3.33;;;;;;;16.94;51.48;96465.47;10448041;28;20508;-25
2022/03/13 04:27:32;;;;;;;3.53;2.63;;;;;;;17.02;52.50;96468.88;10461447;28;20032;-24
2022/03/13 04:32:35;;;;;;;3.80;3.40;;;;;;;17.01;52.43;96465.50;10456409;28;20317;-24
2022/03/13 04:37:35;;;;;;;2.93;2.43;;;;;;;16.98;48.38;96462.13;10461467;28;20541;-24
2022/03/13 04:42:35;;;;;;;3.15;2.60;;;;;;;16.96;47.95;96463.78;10464009;28;20280;-23
2022/03/13 04:47:36;;;;;;;3.37;2.80;;;;;;;16.94;47.63;96476.44;10459864;28;20035;-23
2022/03/13 04:52:37;;;;;;;2.63;2.43;;;;;;;16.93;47.85;96479.81;10459853;28;20098;-23
2022/03/13 04:57:37;;;;;;;3.83;2.40;;;;;;;16.91;47.95;96480.66;10465738;28;20404;-23
2022/03/13 05:02:37;;;;;;;3.03;2.57;;;;;;;16.91;48.38;96495.81;10469180;28;20037;-24
2022/03/13 05:07:38;;;;;;;2.28;2.03;;;;;;;16.89;48.17;96489.94;10455616;28;20548;-24
2022/03/13 05:12:39;;;;;;;2.85;2.40;;;;;;;16.90;47.75;96494.97;10460156;28;20048;-23
2022/03/13 05:17:40;;;;;;;2.78;2.38;;;;;;;16.87;47.72;96494.09;10460890;28;20033;-24
2022/03/13 05:22:40;;;;;;;3.03;2.20;;;;;;;16.89;48.04;96489.94;10446475;28;20042;-23
2022/03/13 05:27:43;;;;;;;4.43;2.65;;;;;;;16.90;47.92;96496.66;10460064;28;20021;-22
2022/03/13 05:32:44;;;;;;;3.17;2.88;;;;;;;17.00;51.99;96500.91;10461783;28;20037;-23
2022/03/13 05:37:45;;;;;;;3.83;2.80;;;;;;;17.00;51.87;96500.91;10449475;28;20397;-23
2022/03/13 05:42:51;;;;;;;3.40;2.50;;;;;;;16.96;49.52;96504.25;10455901;28;20452;-24
2022/03/13 05:47:55;;;;;;;2.88;2.53;;;;;;;16.94;48.52;96501.75;10448836;28;20476;-23
2022/03/13 05:52:56;;;;;;;3.13;2.67;;;;;;;16.93;48.58;96509.31;10455462;28;20397;-26
2022/03/13 05:57:58;;;;;;;2.90;2.60;;;;;;;16.91;48.05;96513.53;10458140;28;20066;-23
2022/03/13 06:03:00;;;;;;;3.45;2.75;;;;;;;16.90;48.24;96516.91;10449258;28;20044;-23
2022/03/13 06:08:02;;;;;;;4.22;2.25;;;;;;;16.88;48.31;96523.59;10433533;28;20487;-24
2022/03/13 06:13:03;;;;;;;3.92;2.00;;;;;;;16.86;47.87;96522.75;10436392;28;20481;-25
2022/03/13 06:18:03;;;;;;;3.30;2.70;;;;;;;16.92;47.62;96522.78;10442459;28;20036;-24
2022/03/13 06:23:04;;;;;;;3.53;2.70;;;;;;;16.99;47.92;96525.31;10436164;28;20287;-25
2022/03/13 06:28:04;;;;;;;3.33;2.53;;;;;;;17.02;47.57;96519.44;10435519;28;20033;-23
2022/03/13 06:33:05;;;;;;;2.55;1.98;;;;;;;17.05;47.55;96524.50;10444969;28;20032;-23
2022/03/13 06:38:05;;;;;;;4.63;2.83;;;;;;;17.08;51.31;96514.41;10445211;28;20493;-25
2022/03/13 06:43:06;;;;;;;6.30;2.80;;;;;;;17.11;52.29;96509.34;10442048;28;20034;-23
2022/03/13 06:48:06;;;;;;;3.35;2.75;;;;;;;17.11;49.64;96515.25;10448314;28;20048;-22
2022/03/13 06:53:08;;;;;;;2.88;2.10;;;;;;;17.06;48.42;96505.97;10444967;28;20032;-22
2022/03/13 06:58:08;;;;;;;4.25;2.95;;;;;;;17.11;48.44;96512.72;10444263;28;20029;-21
2022/03/13 07:03:08;;;;;;;6.37;2.00;;;;;;;17.09;47.73;96501.75;10459605;28;20041;-21
2022/03/13 07:08:09;;;;;;;5.07;2.27;;;;;;;17.08;47.69;96500.06;10438999;28;20032;-22
2022/03/13 07:13:10;;;;;;;3.40;2.07;;;;;;;17.09;47.88;96508.50;10455849;28;20025;-20
2022/03/13 07:18:10;;;;;;;2.65;2.20;;;;;;;17.10;47.48;96510.19;10448831;28;20029;-24
2022/03/13 07:23:11;;;;;;;4.15;3.40;;;;;;;16.90;46.09;96516.91;10447961;28;20044;-23
2022/03/13 07:28:11;;;;;;;10.95;5.50;;;;;;;16.58;43.40;96515.94;10453581;28;20033;-22
2022/03/13 07:33:11;;;;;;;7.63;3.33;;;;;;;16.96;45.75;96520.28;10462830;28;20059;-24
2022/03/13 07:38:12;;;;;;;5.60;3.22;;;;;;;17.02;46.47;96499.22;10439024;28;20306;-24
2022/03/13 07:43:13;;;;;;;4.65;3.10;;;;;;;17.05;46.82;96496.69;10451376;28;20060;-23
2022/03/13 07:48:13;;;;;;;7.70;3.90;;;;;;;17.09;48.86;96495.84;10431877;28;20033;-23
2022/03/13 07:53:14;;;;;;;6.97;3.83;;;;;;;17.10;48.76;96482.38;10447119;28;20036;-23
2022/03/13 07:58:14;;;;;;;5.13;3.35;;;;;;;17.11;46.94;96479.00;10448152;28;20033;-24
2022/03/13 08:03:20;;;;;;;5.97;3.63;;;;;;;17.11;47.03;96469.72;10435018;28;20044;-23
2022/03/13 08:08:21;;;;;;;6.93;3.50;;;;;;;17.12;46.98;96465.50;10443442;28;20409;-25
2022/03/13 08:13:22;;;;;;;18.50;5.05;;;;;;;17.02;45.83;96463.81;10460294;28;20043;-24
2022/03/13 08:18:22;;;;;;;12.40;5.07;;;;;;;17.06;46.25;96460.47;10433713;28;20052;-24
2022/03/13 08:23:23;;;;;;;10.75;4.32;;;;;;;17.07;46.57;96457.09;10427710;28;20046;-23
2022/03/13 08:28:23;;;;;;;11.25;5.10;;;;;;;17.09;46.82;96455.38;10444840;28;20055;-23
2022/03/13 08:33:24;;;;;;;9.30;4.53;;;;;;;17.09;46.62;96460.44;10456040;28;20036;-24
2022/03/13 08:38:24;;;;;;;11.18;5.13;;;;;;;17.10;46.93;96457.06;10453884;28;20364;-22
2022/03/13 08:43:25;;;;;;;8.85;4.32;;;;;;;17.12;46.58;96445.25;10443108;28;20045;-20
2022/03/13 08:48:25;;;;;;;7.10;3.95;;;;;;;17.11;46.61;96446.09;10449939;28;20061;-21
2022/03/13 08:53:26;;;;;;;12.30;6.13;;;;;;;17.14;47.45;96441.06;10453003;28;20040;-21
2022/03/13 08:58:26;;;;;;;14.60;8.75;;;;;;;17.15;48.72;96436.00;10451405;28;20846;-20
2022/03/13 09:03:28;;;;;;;13.80;7.37;;;;;;;17.16;47.86;96427.56;10461847;28;20028;-21
2022/03/13 09:08:29;;;;;;;7.60;4.82;;;;;;;17.16;47.22;96421.69;10452653;28;20301;-21
2022/03/13 09:13:29;;;;;;;8.23;3.60;;;;;;;17.13;47.13;96409.88;10448509;28;20033;-21
2022/03/13 09:18:30;;;;;;;6.65;4.03;;;;;;;17.12;47.17;96400.59;10458670;28;20044;-21
2022/03/13 09:23:31;;;;;;;13.50;5.00;;;;;;;17.15;47.01;96395.53;10462826;28;20113;-21
2022/03/13 09:28:32;;;;;;;6.82;4.35;;;;;;;17.14;47.02;96390.50;10443020;28;20082;-23
2022/03/13 09:33:33;;;;;;;10.35;4.43;;;;;;;17.17;46.70;96391.31;10443070;28;20065;-22
2022/03/13 09:38:34;;;;;;;9.40;3.90;;;;;;;17.16;47.22;96378.69;10451511;28;20029;-20
2022/03/13 09:43:34;;;;;;;6.97;5.10;;;;;;;17.18;47.35;96374.44;10461875;28;20522;-20
2022/03/13 09:48:36;;;;;;;10.67;4.47;;;;;;;17.17;46.96;96373.59;10451227;28;20032;-23
2022/03/13 09:53:37;;;;;;;5.97;4.35;;;;;;;17.14;46.81;96358.44;10438849;28;20851;-25
2022/03/13 09:58:39;;;;;;;9.45;4.57;;;;;;;17.15;47.06;96344.09;10447638;28;20033;-23
2022/03/13 10:03:39;;;;;;;7.18;4.22;;;;;;;17.16;47.19;96343.25;10447178;28;20067;-25
2022/03/13 10:08:39;;;;;;;15.90;6.88;;;;;;;17.20;48.06;96339.88;10447966;28;20052;-24
2022/03/13 10:13:43;;;;;;;9.40;3.90;;;;;;;17.20;46.96;96342.41;10444348;28;20052;-25
2022/03/13 10:18:43;;;;;;;13.18;4.07;;;;;;;17.19;47.20;96333.13;10443625;28;20115;-24
2022/03/13 10:23:47;;;;;;;9.83;4.33;;;;;;;17.10;47.09;96310.38;10451646;28;20439;-23
2022/03/13 10:28:48;;;;;;;10.75;4.40;;;;;;;17.17;47.23;96312.06;10448177;28;20029;-23
2022/03/13 10:33:52;;;;;;;14.30;5.93;;;;;;;17.15;47.83;96313.75;10440082;28;20485;-25
2022/03/13 10:38:53;;;;;;;12.15;4.70;;;;;;;17.13;47.08;96312.91;10452043;28;20293;-23
2022/03/13 10:43:54;;;;;;;9.23;3.83;;;;;;;17.15;47.24;96303.63;10458661;28;20480;-27
2022/03/13 10:48:56;;;;;;;13.02;5.03;;;;;;;17.15;46.16;96299.41;10449212;28;20107;-25
2022/03/13 10:53:57;;;;;;;9.13;6.15;;;;;;;17.06;40.41;96294.38;10455953;28;20479;-22
2022/03/13 10:58:59;;;;;;;17.58;6.28;;;;;;;17.07;42.37;96297.75;10463222;28;20068;-24
2022/03/13 11:04:06;;;;;;;6.72;4.38;;;;;;;17.03;45.56;96296.91;10435744;28;20108;-25
2022/03/13 11:09:06;;;;;;;;;;;;;;;17.07;46.08;96285.94;10450180;28;20040;-23
2022/03/13 11:14:08;;;;;;;12.40;7.07;;;;;;;17.09;45.92;96294.34;10456849;28;20398;-23
2022/03/13 11:19:08;;;;;;;11.18;4.95;;;;;;;17.09;46.30;96291.00;10448511;28;20060;-24
2022/03/13 11:24:09;;;;;;;6.50;4.40;;;;;;;17.04;46.84;96291.00;10465854;28;20479;-23
2022/03/13 11:29:10;;;;;;;7.68;3.80;;;;;;;17.04;46.60;96300.25;10453877;28;20036;-24
2022/03/13 11:34:22;;;;;;;7.95;4.03;;;;;;;17.03;46.84;96298.59;10455387;28;20036;-24
2022/03/13 11:39:28;;;;;;;5.50;3.90;;;;;;;17.01;47.01;96302.81;10460038;28;20044;-24
2022/03/13 11:44:30;;;;;;;7.00;4.22;;;;;;;17.01;46.88;96305.34;10425174;28;20028;-25
2022/03/13 11:49:31;;;;;;;7.40;4.07;;;;;;;16.98;47.02;96301.13;10452352;28;20227;-23
2022/03/13 11:54:50;;;;;;;8.73;4.60;;;;;;;16.99;47.26;96296.91;10442986;28;20116;-25
2022/03/13 12:00:12;;;;;;;7.90;3.92;;;;;;;16.99;47.53;96286.81;10462935;28;20044;-24
2022/03/13 12:05:28;;;;;;;5.88;3.92;;;;;;;16.98;47.06;96285.94;10457424;28;20555;-23
2022/03/13 12:10:35;;;;;;;7.55;4.22;;;;;;;16.98;46.92;96280.88;10414199;28;20039;-24
2022/03/13 12:15:37;;;;;;;7.97;5.03;;;;;;;17.04;48.77;96272.44;10415202;28;20033;-24
2022/03/13 12:20:38;;;;;;;10.43;5.68;;;;;;;17.01;48.54;96254.75;10435351;28;20167;-24
2022/03/13 12:25:38;;;;;;;8.20;4.53;;;;;;;17.10;48.52;96269.91;10463576;28;20144;-24
2022/03/13 12:30:39;;;;;;;6.20;3.63;;;;;;;17.02;47.63;96267.41;10455075;28;20200;-25
2022/03/13 12:35:39;;;;;;;6.78;3.75;;;;;;;16.99;47.84;96269.09;10446150;28;20044;-25
2022/03/13 12:40:47;;;;;;;6.53;3.90;;;;;;;16.99;47.71;96266.56;10461644;28;20171;-25
2022/03/13 12:45:51;;;;;;;6.47;3.05;;;;;;;16.98;47.83;96280.06;10445457;28;20299;-25
2022/03/13 12:50:52;;;;;;;5.75;3.60;;;;;;;16.98;47.54;96275.00;10465853;28;20115;-25
2022/03/13 12:55:53;;;;;;;6.60;3.85;;;;;;;16.95;47.47;96280.91;10465398;28;20037;-24
2022/03/13 13:00:53;;;;;;;6.35;4.10;;;;;;;16.96;47.77;96279.19;10455910;28;20613;-24
2022/03/13 13:05:53;;;;;;;7.47;4.30;;;;;;;17.00;48.42;96286.78;10458038;28;20020;-25
2022/03/13 13:10:57;;;;;;;6.22;4.25;;;;;;;17.00;47.99;96268.25;10465999;28;20076;-25
2022/03/13 13:15:57;;;;;;;5.53;4.03;;;;;;;17.02;48.15;96274.13;10470011;28;20123;-23
2022/03/13 13:21:08;;;;;;;7.95;5.07;;;;;;;17.01;49.39;96265.72;10461918;28;20506;-24
2022/03/13 13:26:09;;;;;;;8.98;5.78;;;;;;;17.10;49.42;96272.44;10470946;28;20120;-23
2022/03/13 13:31:13;;;;;;;7.45;5.57;;;;;;;17.12;49.29;96268.22;10456229;28;20052;-25
2022/03/13 13:36:19;;;;;;;5.82;4.40;;;;;;;17.06;49.15;96279.19;10455349;28;20037;-24
2022/03/13 13:41:23;;;;;;;8.20;4.90;;;;;;;17.04;48.86;96275.81;10441364;28;20394;-24
2022/03/13 13:46:30;;;;;;;5.32;3.72;;;;;;;16.98;47.72;96277.53;10459373;28;20025;-25
2022/03/13 13:51:35;;;;;;;5.95;4.70;;;;;;;16.96;47.68;96275.00;10462357;28;20172;-22
2022/03/13 13:56:40;;;;;;;6.03;3.70;;;;;;;16.96;48.09;96276.66;10423910;28;20204;-24
2022/03/13 14:01:46;;;;;;;4.07;3.50;;;;;;;16.95;47.74;96280.03;10459329;28;20033;-24
2022/03/13 14:06:47;;;;;;;3.70;2.78;;;;;;;16.95;48.06;96282.56;10449603;28;20473;-24
2022/03/13 14:11:48;;;;;;;5.65;4.32;;;;;;;16.85;47.99;96266.59;10460972;28;20044;-27
2022/03/13 14:16:48;;;;;;;6.82;4.60;;;;;;;16.94;47.65;96284.28;10460685;28;20522;-24
2022/03/13 14:21:50;;;;;;;8.35;3.88;;;;;;;16.94;48.08;96293.53;10462302;28;20534;-25
2022/03/13 14:26:50;;;;;;;4.97;4.03;;;;;;;16.94;47.81;96288.47;10430763;28;20395;-23
2022/03/13 14:31:51;;;;;;;6.90;5.40;;;;;;;17.06;49.75;96291.00;10429539;28;20043;-25
2022/03/13 14:36:58;;;;;;;5.95;4.82;;;;;;;17.11;49.85;96289.28;10427095;28;20081;-24
2022/03/13 14:41:59;;;;;;;;;;;;;;;17.07;49.37;96275.00;10460052;28;20484;-23
2022/03/13 14:46:59;;;;;;;5.97;4.75;;;;;;;17.04;49.35;96274.97;10461486;28;19912;-24
2022/03/13 14:52:00;;;;;;;5.53;4.50;;;;;;;17.00;48.23;96269.06;10456834;28;20033;-23
2022/03/13 14:57:00;;;;;;;5.78;4.22;;;;;;;16.97;47.96;96265.69;10457460;28;20461;-24
2022/03/13 15:02:01;;;;;;;6.20;4.57;;;;;;;16.98;48.32;96253.06;10463541;28;20480;-24
2022/03/13 15:07:01;;;;;;;6.70;4.47;;;;;;;16.93;47.81;96252.25;10456407;28;20290;-24
2022/03/13 15:12:03;;;;;;;5.03;4.28;;;;;;;16.89;48.02;96245.50;10464813;28;20033;-27
2022/03/13 15:17:04;;;;;;;5.82;5.18;;;;;;;16.90;48.14;96241.31;10449449;28;20040;-23
2022/03/13 15:22:05;;;;;;;3.53;3.10;;;;;;;16.88;48.03;96227.78;10453578;28;20397;-26
2022/03/13 15:27:05;;;;;;;4.47;3.08;;;;;;;16.90;47.98;96236.25;10465591;28;20137;-24
2022/03/13 15:32:06;;;;;;;5.15;3.75;;;;;;;16.95;47.90;96234.53;10457263;28;20159;-23
2022/03/13 15:37:07;;;;;;;7.72;3.53;;;;;;;16.98;48.16;96234.53;10446133;28;20036;-24
2022/03/13 15:42:07;;;;;;;13.38;4.60;;;;;;;17.04;49.69;96219.34;10457594;28;20492;-23
2022/03/13 15:47:08;;;;;;;10.60;6.75;;;;;;;17.14;50.90;96221.03;10461911;28;20032;-24
2022/03/13 15:52:09;;;;;;;13.52;5.85;;;;;;;17.13;49.22;96224.38;10450875;28;20143;-23
2022/03/13 15:57:10;;;;;;;7.97;3.88;;;;;;;17.06;48.00;96225.25;10431885;28;20630;-24
2022/03/13 16:02:10;;;;;;;4.07;3.60;;;;;;;16.97;47.91;96215.13;10458015;28;20238;-24
2022/03/13 16:07:10;;;;;;;6.50;3.70;;;;;;;17.03;48.01;96233.69;10452307;28;20029;-24
2022/03/13 16:12:20;;;;;;;6.93;3.70;;;;;;;17.03;47.98;96232.84;10462142;28;20444;-23
2022/03/13 16:17:25;;;;;;;5.57;5.00;;;;;;;17.02;48.04;96231.16;10461849;28;20398;-22
2022/03/13 16:22:28;;;;;;;8.27;3.78;;;;;;;17.01;48.09;96230.31;10445601;28;20041;-25
2022/03/13 16:27:28;;;;;;;6.95;4.38;;;;;;;17.01;48.73;96232.00;10456652;28;20032;-23
2022/03/13 16:32:29;;;;;;;15.60;8.05;;;;;;;17.12;50.61;96242.94;10445816;28;20440;-24
2022/03/13 16:37:30;;;;;;;12.10;7.60;;;;;;;17.15;50.95;96242.94;10442003;28;20556;-26
2022/03/13 16:42:30;;;;;;;10.68;6.22;;;;;;;17.04;50.50;96244.63;10457188;28;20488;-24
2022/03/13 16:47:30;;;;;;;4.90;4.20;;;;;;;17.03;48.21;96248.84;10461476;28;20040;-24
2022/03/13 16:52:32;;;;;;;3.67;2.88;;;;;;;17.00;48.15;96245.50;10442065;28;20282;-24
2022/03/13 16:57:32;;;;;;;5.07;3.05;;;;;;;17.03;48.09;96248.00;10461562;28;20071;-24
2022/03/13 17:02:33;;;;;;;4.50;2.85;;;;;;;17.02;48.07;96251.38;10449254;28;20059;-25
2022/03/13 17:07:36;;;;;;;3.92;3.20;;;;;;;17.01;47.95;96249.69;10462095;28;20033;-24
2022/03/13 17:12:39;;;;;;;6.68;3.25;;;;;;;17.02;48.09;96257.28;10453454;28;20106;-25
2022/03/13 17:17:40;;;;;;;4.25;3.47;;;;;;;17.03;48.02;96263.19;10425359;28;20040;-23
2022/03/13 17:22:41;;;;;;;3.97;2.95;;;;;;;17.02;48.01;96261.50;10435390;28;20037;-24
2022/03/13 17:27:41;;;;;;;10.05;5.57;;;;;;;17.16;52.58;96269.91;10449611;28;20554;-24
2022/03/13 17:32:41;;;;;;;11.20;6.10;;;;;;;17.19;52.77;96275.81;10463838;28;20416;-24
2022/03/13 17:37:42;;;;;;;5.70;3.10;;;;;;;17.14;48.68;96281.72;10425460;28;20431;-23
2022/03/13 17:42:42;;;;;;;7.60;3.30;;;;;;;17.10;48.79;96285.09;10440475;28;20523;-24
2022/03/13 17:47:43;;;;;;;6.68;3.40;;;;;;;17.07;48.22;96301.09;10413599;28;20026;-25
2022/03/13 17:52:43;;;;;;;6.05;3.45;;;;;;;17.04;48.30;96305.31;10438648;28;20029;-24
2022/03/13 17:57:44;;;;;;;5.40;3.75;;;;;;;17.05;48.27;96317.13;10417857;28;20044;-25
2022/03/13 18:02:44;;;;;;;6.75;3.30;;;;;;;16.91;48.57;96289.31;10439395;28;20480;-23
2022/03/13 18:07:44;;;;;;;8.70;3.73;;;;;;;17.06;48.72;96318.84;10460600;28;20519;-24
2022/03/13 18:12:45;;;;;;;5.43;3.45;;;;;;;17.05;48.34;96332.28;10430344;28;20091;-24
2022/03/13 18:17:46;;;;;;;12.23;5.05;;;;;;;17.04;48.79;96331.47;10466331;28;20124;-24
2022/03/13 18:22:46;;;;;;;9.05;4.05;;;;;;;17.05;48.73;96352.53;10452776;28;20044;-23
2022/03/13 18:27:47;;;;;;;15.38;7.28;;;;;;;17.19;54.20;96350.84;10451378;28;20060;-24
2022/03/13 18:32:48;;;;;;;15.05;6.97;;;;;;;17.24;54.51;96370.22;10430673;28;20450;-25
2022/03/13 18:37:49;;;;;;;10.45;4.25;;;;;;;17.18;49.77;96371.91;10446102;28;20033;-23
2022/03/13 18:42:50;;;;;;;3.88;3.15;;;;;;;17.14;48.46;96377.84;10448261;28;20068;-24
2022/03/13 18:47:50;;;;;;;5.30;3.30;;;;;;;17.12;48.77;96387.09;10463517;28;20553;-23
2022/03/13 18:52:51;;;;;;;4.75;3.22;;;;;;;17.10;48.54;96398.91;10454063;28;20126;-24
2022/03/13 18:57:52;;;;;;;7.33;3.40;;;;;;;17.09;48.69;96413.22;10427147;28;20028;-24
2022/03/13 19:02:54;;;;;;;5.35;2.97;;;;;;;17.12;48.42;96419.97;10457100;28;20289;-24
2022/03/13 19:07:55;;;;;;;4.63;3.20;;;;;;;17.13;48.42;96432.63;10457198;28;20028;-24
2022/03/13 19:13:00;;;;;;;3.97;3.17;;;;;;;17.15;48.91;96441.06;10420677;28;20044;-25
2022/03/13 19:18:02;;;;;;;4.97;3.30;;;;;;;17.13;48.59;96447.81;10424810;28;20511;-26
2022/03/13 19:23:06;;;;;;;4.45;3.30;;;;;;;17.13;48.22;96457.06;10402988;28;20570;-25
2022/03/13 19:28:06;;;;;;;10.32;6.32;;;;;;;17.25;52.48;96467.22;10431517;28;20128;-24
2022/03/13 19:33:07;;;;;;;10.10;5.73;;;;;;;17.28;52.51;96464.69;10427075;28;20091;-25
2022/03/13 19:38:09;;;;;;;7.05;4.13;;;;;;;17.18;49.10;96458.78;10410285;28;20036;-25
2022/03/13 19:43:09;;;;;;;5.55;3.58;;;;;;;17.16;48.58;96469.75;10443545;28;20869;-25
2022/03/13 19:48:10;;;;;;;3.40;2.78;;;;;;;17.12;48.37;96476.47;10457008;28;20110;-25
2022/03/13 19:53:12;;;;;;;3.45;2.85;;;;;;;17.12;48.34;96466.34;10441209;28;20103;-23
2022/03/13 19:58:13;;;;;;;4.35;3.40;;;;;;;17.12;48.17;96478.16;10437001;28;20069;-25
2022/03/13 20:03:13;;;;;;;4.15;3.22;;;;;;;17.13;48.32;96482.38;10432823;28;20145;-24
2022/03/13 20:08:14;;;;;;;3.17;2.87;;;;;;;17.08;48.28;96484.06;10414172;28;20575;-24
2022/03/13 20:13:14;;;;;;;4.27;3.40;;;;;;;17.12;48.37;96486.59;10422303;28;20366;-25
2022/03/13 20:18:15;;;;;;;5.18;3.20;;;;;;;17.12;47.87;96490.78;10430622;28;20390;-26
2022/03/13 20:23:16;;;;;;;4.50;3.25;;;;;;;17.11;48.08;96492.50;10422431;28;20043;-26
2022/03/13 20:28:16;;;;;;;6.57;5.20;;;;;;;17.20;51.56;96504.28;10438434;28;20515;-25
2022/03/13 20:33:17;;;;;;;10.10;5.57;;;;;;;17.25;51.76;96506.00;10443066;28;20280;-24
2022/03/13 20:38:18;;;;;;;6.15;4.57;;;;;;;17.24;51.73;96503.47;10418382;28;20036;-24
2022/03/13 20:43:18;;;;;;;4.78;3.45;;;;;;;17.16;48.54;96517.81;10404166;28;20735;-26
2022/03/13 20:48:20;;;;;;;4.28;2.90;;;;;;;17.16;48.28;96517.81;10438813;28;20069;-25
2022/03/13 20:53:21;;;;;;;4.25;2.63;;;;;;;17.15;47.84;96527.06;10437706;28;20057;-25
2022/03/13 20:58:22;;;;;;;6.60;4.07;;;;;;;17.15;48.40;96537.19;10446644;28;20033;-25
2022/03/13 21:03:23;;;;;;;3.92;3.28;;;;;;;17.12;48.34;96542.25;10441665;28;20021;-25
2022/03/13 21:08:24;;;;;;;5.72;3.42;;;;;;;17.13;48.44;96564.16;10442613;28;20090;-24
2022/03/13 21:13:31;;;;;;;4.72;3.97;;;;;;;17.13;48.28;96564.16;10427123;28;20036;-25
2022/03/13 21:18:33;;;;;;;3.38;2.92;;;;;;;17.13;48.03;96563.31;10433091;28;20393;-23
2022/03/13 21:23:33;;;;;;;3.85;2.70;;;;;;;17.14;48.13;96577.66;10450748;28;20102;-24
2022/03/13 21:28:36;;;;;;;8.35;4.10;;;;;;;17.15;48.32;96576.81;10454417;28;20416;-24
2022/03/13 21:33:36;;;;;;;7.57;5.10;;;;;;;17.19;49.46;96584.44;10470444;28;20040;-24
2022/03/13 21:38:37;;;;;;;7.25;3.80;;;;;;;17.17;52.32;96585.25;10455194;28;20044;-23
2022/03/13 21:43:37;;;;;;;3.40;3.10;;;;;;;17.16;49.98;96583.56;10465394;28;20036;-24
2022/03/13 21:48:38;;;;;;;5.60;2.67;;;;;;;17.08;48.92;96585.22;10454880;28;20279;-25
2022/03/13 21:53:38;;;;;;;3.67;3.20;;;;;;;17.13;48.80;96603.78;10458379;28;20037;-23
2022/03/13 21:58:40;;;;;;;3.42;2.60;;;;;;;17.10;48.86;96603.78;10443008;28;20044;-24
2022/03/13 22:03:40;;;;;;;3.35;2.97;;;;;;;17.11;48.70;96615.56;10465994;28;20045;-26
2022/03/13 22:08:41;;;;;;;4.80;3.03;;;;;;;17.09;48.94;96625.69;10468815;28;20614;-24
2022/03/13 22:13:44;;;;;;;3.03;2.75;;;;;;;17.09;48.68;96632.44;10460328;28;20288;-23
2022/03/13 22:18:47;;;;;;;3.30;3.00;;;;;;;17.01;48.30;96626.50;10472152;28;20058;-24
2022/03/13 22:23:47;;;;;;;5.53;2.58;;;;;;;17.08;48.33;96651.81;10467057;28;20039;-24
2022/03/13 22:28:48;;;;;;;3.97;2.70;;;;;;;17.07;48.48;96665.31;10439150;28;20040;-24
2022/03/13 22:33:48;;;;;;;3.75;2.92;;;;;;;17.08;48.47;96681.34;10470149;28;20079;-25
2022/03/13 22:38:49;;;;;;;5.57;3.40;;;;;;;17.16;52.64;96672.09;10436122;28;20420;-23
2022/03/13 22:43:49;;;;;;;9.10;5.10;;;;;;;17.20;52.19;96686.44;10467818;28;20036;-25
2022/03/13 22:48:50;;;;;;;4.18;3.20;;;;;;;17.15;49.92;96688.13;10435817;28;20568;-22
2022/03/13 22:53:53;;;;;;;3.53;2.83;;;;;;;17.11;49.08;96691.47;10455987;28;20067;-21
2022/03/13 22:58:54;;;;;;;3.42;2.60;;;;;;;17.08;48.71;96706.63;10463284;28;20540;-22
2022/03/13 23:03:55;;;;;;;3.55;2.60;;;;;;;17.07;48.83;96720.13;10454320;28;20503;-21
2022/03/13 23:08:57;;;;;;;3.00;2.70;;;;;;;17.08;49.09;96737.00;10434503;28;20035;-21
2022/03/13 23:13:57;;;;;;;4.20;3.10;;;;;;;17.05;48.58;96752.97;10458410;28;20774;-21
2022/03/13 23:18:57;;;;;;;3.97;3.03;;;;;;;17.07;48.97;96775.78;10465949;28;20041;-21